Ship Status Report: callsign BR3037

sailwx.info

Track history (hours):
 
Tides and Currents Weather Stations Pressure Air Temp Water Temp Dewpoint Dewpoint Depression Visibility Wind Speed Wind Dir Waves Ship Positions

Oceanographic research ship ()

Last reported at 2019-Jun-19 01:49 UTC. Time now 2019-Jun-19 21:55 UTC.
Position N 22°36' E 120°17'.

Length 39 m.

Type: Other ship. MMSI: 416926000.

Date/timePositionNaut miles runAvg speedWind from/ knotsBaromVisibWave heightAir tempDewpointWater temp
2019-Jun-19 01:49N 22°36' E 120°17'1 3.2
2019-Jun-19 01:30N 22°37' E 120°17'  
2019-Jun-16 03:37N 22°38' E 120°11'2 9.7
2019-Jun-16 03:25N 22°38' E 120°13'410.1
2019-Jun-16 03:00N 22°36' E 120°17'0 0.4
2019-Jun-16 01:49N 22°36' E 120°17'0 0.0
2019-Jun-16 01:17N 22°36' E 120°17'0 0.6
2019-Jun-16 00:49N 22°36' E 120°17'0 0.0
2019-Jun-14 03:59N 22°36' E 120°17'3 6.1
2019-Jun-14 03:30N 22°37' E 120°14'5 0.1
2019-Jun-12 02:36N 22°39' E 120°09'111.0
2019-Jun-12 02:29N 22°39' E 120°10'7 5.1
2019-Jun-12 01:05N 22°36' E 120°17'0 0.1
2019-Jun-12 00:59N 22°36' E 120°17'0 0.0
2019-Jun-11 09:32N 22°36' E 120°17'0 0.1
2019-Jun-11 09:27N 22°36' E 120°17'2 4.5
2019-Jun-11 09:00N 22°37' E 120°15'2 4.8
2019-Jun-11 08:30N 22°37' E 120°13'4 7.2
2019-Jun-11 07:56N 22°33' E 120°13'  
2019-Jun-08 07:07N 22°30' E 120°11'211.7
2019-Jun-08 06:59N 22°32' E 120°11'611.9
2019-Jun-08 06:31N 22°37' E 120°12'3 6.2
2019-Jun-08 06:01N 22°37' E 120°15'2 0.1
2019-Jun-07 06:39N 22°36' E 120°17'0 2.5
2019-Jun-07 06:30N 22°36' E 120°17'4 8.6
2019-Jun-07 06:00N 22°37' E 120°12'  
Track history (hours):
 
Tides and Currents Weather Stations Pressure Air Temp Water Temp Dewpoint Dewpoint Depression Visibility Wind Speed Wind Dir Waves Ship Positions

Oceanographic research ship ()

Last reported at 2019-Jun-19 01:49 UTC. Time now 2019-Jun-19 21:55 UTC.
Position N 22°36' E 120°17'.

Length 39 m.

Type: Other ship. MMSI: 416926000.

Date/timePositionNaut miles runAvg speedWind from/ knotsBaromVisibWave heightAir tempDewpointWater temp
2019-Jun-19 01:49N 22°36' E 120°17'1 3.2
2019-Jun-19 01:30N 22°37' E 120°17'  
2019-Jun-16 03:37N 22°38' E 120°11'2 9.7
2019-Jun-16 03:25N 22°38' E 120°13'410.1
2019-Jun-16 03:00N 22°36' E 120°17'0 0.4
2019-Jun-16 01:49N 22°36' E 120°17'0 0.0
2019-Jun-16 01:17N 22°36' E 120°17'0 0.6
2019-Jun-16 00:49N 22°36' E 120°17'0 0.0
2019-Jun-14 03:59N 22°36' E 120°17'3 6.1
2019-Jun-14 03:30N 22°37' E 120°14'5 0.1
2019-Jun-12 02:36N 22°39' E 120°09'111.0
2019-Jun-12 02:29N 22°39' E 120°10'7 5.1
2019-Jun-12 01:05N 22°36' E 120°17'0 0.1
2019-Jun-12 00:59N 22°36' E 120°17'0 0.0
2019-Jun-11 09:32N 22°36' E 120°17'0 0.1
2019-Jun-11 09:27N 22°36' E 120°17'2 4.5
2019-Jun-11 09:00N 22°37' E 120°15'2 4.8
2019-Jun-11 08:30N 22°37' E 120°13'4 7.2
2019-Jun-11 07:56N 22°33' E 120°13'  
2019-Jun-08 07:07N 22°30' E 120°11'211.7
2019-Jun-08 06:59N 22°32' E 120°11'611.9
2019-Jun-08 06:31N 22°37' E 120°12'3 6.2
2019-Jun-08 06:01N 22°37' E 120°15'2 0.1
2019-Jun-07 06:39N 22°36' E 120°17'0 2.5
2019-Jun-07 06:30N 22°36' E 120°17'4 8.6
2019-Jun-07 06:00N 22°37' E 120°12'  

Dump ship's entire track history